Elk City, Kansas
Current Conditions -  °F | °C
As of 9:55 PM on Friday 24 Oct 2014 (Local Time) from KIDP Reporting Station
Haze Haze  
Wind Chill: 64°   Ceiling: Unl
Heat Index: 64°   Visibility: 3mi
Dew Point: 59°   Wind: 6mph
Humidity: 83%   Direction: 190°S
Pressure: 30.03"   Gusts: NA
Location:  37.29°N, 95.91°W
Report Text: KIDP 250255Z AUTO 19005KT 3SM HZ CLR 18/15 A3003 RMK AO2
Loading
Personal Weather Stations






























Interactive Weather Map
Tropical Storm Tracking
New forecast layout! Learn more

10-Day Weather Forecast

Advertisements
Track Severe Weather on mobile